sensor_id;sensor_type;location;lat;lon;timestamp;temperature;humidity
57088;DHT22;42965;52.846;6.614;2022-11-12T00:01:46;5.90;99.90
57088;DHT22;42965;52.846;6.614;2022-11-12T00:04:31;5.90;99.90
57088;DHT22;42965;52.846;6.614;2022-11-12T00:07:16;5.80;99.90
57088;DHT22;42965;52.846;6.614;2022-11-12T00:10:03;5.80;99.90
57088;DHT22;42965;52.846;6.614;2022-11-12T00:12:48;5.80;99.90
57088;DHT22;42965;52.846;6.614;2022-11-12T00:15:33;5.80;99.90
57088;DHT22;42965;52.846;6.614;2022-11-12T00:18:18;5.90;99.90
57088;DHT22;42965;52.846;6.614;2022-11-12T00:21:04;5.90;99.90
57088;DHT22;42965;52.846;6.614;2022-11-12T00:23:49;5.90;99.90
57088;DHT22;42965;52.846;6.614;2022-11-12T00:26:33;5.90;99.90
57088;DHT22;42965;52.846;6.614;2022-11-12T00:29:18;5.80;99.90
57088;DHT22;42965;52.846;6.614;2022-11-12T00:32:05;5.80;99.90
57088;DHT22;42965;52.846;6.614;2022-11-12T00:34:50;5.70;99.90
57088;DHT22;42965;52.846;6.614;2022-11-12T00:37:35;5.60;99.90
57088;DHT22;42965;52.846;6.614;2022-11-12T00:40:20;5.60;99.90
57088;DHT22;42965;52.846;6.614;2022-11-12T00:43:05;5.60;99.90
57088;DHT22;42965;52.846;6.614;2022-11-12T00:45:49;5.50;99.90
57088;DHT22;42965;52.846;6.614;2022-11-12T00:48:34;5.50;99.90
57088;DHT22;42965;52.846;6.614;2022-11-12T00:51:19;5.60;99.90
57088;DHT22;42965;52.846;6.614;2022-11-12T00:54:04;5.60;99.90
57088;DHT22;42965;52.846;6.614;2022-11-12T00:56:49;5.60;99.90
57088;DHT22;42965;52.846;6.614;2022-11-12T00:59:34;5.50;99.90
57088;DHT22;42965;52.846;6.614;2022-11-12T01:02:19;5.50;99.90
57088;DHT22;42965;52.846;6.614;2022-11-12T01:05:05;5.50;99.90
57088;DHT22;42965;52.846;6.614;2022-11-12T01:07:50;5.40;99.90
57088;DHT22;42965;52.846;6.614;2022-11-12T01:10:35;5.30;99.90
57088;DHT22;42965;52.846;6.614;2022-11-12T01:13:20;5.30;99.90
57088;DHT22;42965;52.846;6.614;2022-11-12T01:16:11;5.20;99.90
57088;DHT22;42965;52.846;6.614;2022-11-12T01:18:58;5.20;99.90
57088;DHT22;42965;52.846;6.614;2022-11-12T01:21:43;5.10;99.90
57088;DHT22;42965;52.846;6.614;2022-11-12T01:24:28;5.10;99.90
57088;DHT22;42965;52.846;6.614;2022-11-12T01:27:13;5.00;99.90
57088;DHT22;42965;52.846;6.614;2022-11-12T01:29:58;5.00;99.90
57088;DHT22;42965;52.846;6.614;2022-11-12T01:32:44;4.90;99.90
57088;DHT22;42965;52.846;6.614;2022-11-12T01:35:29;5.00;99.90
57088;DHT22;42965;52.846;6.614;2022-11-12T01:38:14;5.00;99.90
57088;DHT22;42965;52.846;6.614;2022-11-12T01:40:59;5.10;99.90
57088;DHT22;42965;52.846;6.614;2022-11-12T01:43:44;5.00;99.90
57088;DHT22;42965;52.846;6.614;2022-11-12T01:46:29;5.00;99.90
57088;DHT22;42965;52.846;6.614;2022-11-12T01:49:19;5.00;99.90
57088;DHT22;42965;52.846;6.614;2022-11-12T01:52:15;5.00;99.90
57088;DHT22;42965;52.846;6.614;2022-11-12T01:55:04;5.00;99.90
57088;DHT22;42965;52.846;6.614;2022-11-12T01:57:59;4.90;99.90
57088;DHT22;42965;52.846;6.614;2022-11-12T02:00:49;4.90;99.90
57088;DHT22;42965;52.846;6.614;2022-11-12T02:03:34;4.80;99.90
57088;DHT22;42965;52.846;6.614;2022-11-12T02:06:19;4.80;99.90
57088;DHT22;42965;52.846;6.614;2022-11-12T02:09:04;4.70;99.90
57088;DHT22;42965;52.846;6.614;2022-11-12T02:11:49;4.70;99.90
57088;DHT22;42965;52.846;6.614;2022-11-12T02:14:34;4.70;99.90
57088;DHT22;42965;52.846;6.614;2022-11-12T02:17:19;4.70;99.90
57088;DHT22;42965;52.846;6.614;2022-11-12T02:20:08;4.70;99.90
57088;DHT22;42965;52.846;6.614;2022-11-12T02:22:53;4.60;99.90
57088;DHT22;42965;52.846;6.614;2022-11-12T02:25:37;4.60;99.90
57088;DHT22;42965;52.846;6.614;2022-11-12T02:28:23;4.50;99.90
57088;DHT22;42965;52.846;6.614;2022-11-12T02:31:08;4.50;99.90
57088;DHT22;42965;52.846;6.614;2022-11-12T02:33:53;4.50;99.90
57088;DHT22;42965;52.846;6.614;2022-11-12T02:36:39;4.50;99.90
57088;DHT22;42965;52.846;6.614;2022-11-12T02:39:23;4.50;99.90
57088;DHT22;42965;52.846;6.614;2022-11-12T02:42:08;4.50;99.90
57088;DHT22;42965;52.846;6.614;2022-11-12T02:44:53;4.50;99.90
57088;DHT22;42965;52.846;6.614;2022-11-12T02:47:38;4.40;99.90
57088;DHT22;42965;52.846;6.614;2022-11-12T02:50:22;4.40;99.90
57088;DHT22;42965;52.846;6.614;2022-11-12T02:53:07;4.40;99.90
57088;DHT22;42965;52.846;6.614;2022-11-12T02:55:51;4.40;99.90
57088;DHT22;42965;52.846;6.614;2022-11-12T02:58:36;4.40;99.90
57088;DHT22;42965;52.846;6.614;2022-11-12T03:01:22;4.30;99.90
57088;DHT22;42965;52.846;6.614;2022-11-12T03:04:07;4.30;99.90
57088;DHT22;42965;52.846;6.614;2022-11-12T03:06:52;4.20;99.90
57088;DHT22;42965;52.846;6.614;2022-11-12T03:09:37;4.20;99.90
57088;DHT22;42965;52.846;6.614;2022-11-12T03:12:22;4.20;99.90
57088;DHT22;42965;52.846;6.614;2022-11-12T03:15:07;4.20;99.90
57088;DHT22;42965;52.846;6.614;2022-11-12T03:17:52;4.20;99.90
57088;DHT22;42965;52.846;6.614;2022-11-12T03:20:37;4.10;99.90
57088;DHT22;42965;52.846;6.614;2022-11-12T03:23:24;4.10;99.90
57088;DHT22;42965;52.846;6.614;2022-11-12T03:26:09;4.10;99.90
57088;DHT22;42965;52.846;6.614;2022-11-12T03:28:54;4.10;99.90
57088;DHT22;42965;52.846;6.614;2022-11-12T03:31:40;4.10;99.90
57088;DHT22;42965;52.846;6.614;2022-11-12T03:34:26;4.20;99.90
57088;DHT22;42965;52.846;6.614;2022-11-12T03:37:11;4.20;99.90
57088;DHT22;42965;52.846;6.614;2022-11-12T03:39:56;4.20;99.90
57088;DHT22;42965;52.846;6.614;2022-11-12T03:42:48;4.20;99.90
57088;DHT22;42965;52.846;6.614;2022-11-12T03:45:33;4.20;99.90
57088;DHT22;42965;52.846;6.614;2022-11-12T03:48:19;4.20;99.90
57088;DHT22;42965;52.846;6.614;2022-11-12T03:51:04;4.20;99.90
57088;DHT22;42965;52.846;6.614;2022-11-12T03:53:49;4.10;99.90
57088;DHT22;42965;52.846;6.614;2022-11-12T03:56:33;4.00;99.90
57088;DHT22;42965;52.846;6.614;2022-11-12T03:59:18;4.00;99.90
57088;DHT22;42965;52.846;6.614;2022-11-12T04:02:03;3.90;99.90
57088;DHT22;42965;52.846;6.614;2022-11-12T04:04:47;4.00;99.90
57088;DHT22;42965;52.846;6.614;2022-11-12T04:07:58;4.00;99.90
57088;DHT22;42965;52.846;6.614;2022-11-12T04:11:11;4.00;99.90
57088;DHT22;42965;52.846;6.614;2022-11-12T04:13:56;4.00;99.90
57088;DHT22;42965;52.846;6.614;2022-11-12T04:16:41;4.00;99.90
57088;DHT22;42965;52.846;6.614;2022-11-12T04:19:45;4.00;99.90
57088;DHT22;42965;52.846;6.614;2022-11-12T04:22:48;4.00;99.90
57088;DHT22;42965;52.846;6.614;2022-11-12T04:25:34;4.00;99.90
57088;DHT22;42965;52.846;6.614;2022-11-12T04:28:37;4.00;99.90
57088;DHT22;42965;52.846;6.614;2022-11-12T04:31:22;3.90;99.90
57088;DHT22;42965;52.846;6.614;2022-11-12T04:34:07;3.90;99.90
57088;DHT22;42965;52.846;6.614;2022-11-12T04:37:11;3.90;99.90
57088;DHT22;42965;52.846;6.614;2022-11-12T04:39:56;3.80;99.90
57088;DHT22;42965;52.846;6.614;2022-11-12T04:43:02;3.80;99.90
57088;DHT22;42965;52.846;6.614;2022-11-12T04:46:06;3.80;99.90
57088;DHT22;42965;52.846;6.614;2022-11-12T04:48:51;3.70;99.90
57088;DHT22;42965;52.846;6.614;2022-11-12T04:51:36;3.70;99.90
57088;DHT22;42965;52.846;6.614;2022-11-12T04:54:40;3.80;99.90
57088;DHT22;42965;52.846;6.614;2022-11-12T04:57:25;3.80;99.90
57088;DHT22;42965;52.846;6.614;2022-11-12T05:00:11;3.80;99.90
57088;DHT22;42965;52.846;6.614;2022-11-12T05:02:56;3.90;99.90
57088;DHT22;42965;52.846;6.614;2022-11-12T05:05:41;3.90;99.90
57088;DHT22;42965;52.846;6.614;2022-11-12T05:08:25;3.90;99.90
57088;DHT22;42965;52.846;6.614;2022-11-12T05:11:10;3.90;99.90
57088;DHT22;42965;52.846;6.614;2022-11-12T05:13:54;3.90;99.90
57088;DHT22;42965;52.846;6.614;2022-11-12T05:16:40;3.90;99.90
57088;DHT22;42965;52.846;6.614;2022-11-12T05:19:25;3.80;99.90
57088;DHT22;42965;52.846;6.614;2022-11-12T05:22:10;3.80;99.90
57088;DHT22;42965;52.846;6.614;2022-11-12T05:24:55;3.80;99.90
57088;DHT22;42965;52.846;6.614;2022-11-12T05:27:40;3.80;99.90
57088;DHT22;42965;52.846;6.614;2022-11-12T05:30:25;3.80;99.90
57088;DHT22;42965;52.846;6.614;2022-11-12T05:33:10;3.70;99.90
57088;DHT22;42965;52.846;6.614;2022-11-12T05:35:55;3.70;99.90
57088;DHT22;42965;52.846;6.614;2022-11-12T05:38:41;3.60;99.90
57088;DHT22;42965;52.846;6.614;2022-11-12T05:41:26;3.60;99.90
57088;DHT22;42965;52.846;6.614;2022-11-12T05:44:11;3.60;99.90
57088;DHT22;42965;52.846;6.614;2022-11-12T05:46:56;3.60;99.90
57088;DHT22;42965;52.846;6.614;2022-11-12T05:49:41;3.60;99.90
57088;DHT22;42965;52.846;6.614;2022-11-12T05:52:25;3.60;99.90
57088;DHT22;42965;52.846;6.614;2022-11-12T05:55:10;3.70;99.90
57088;DHT22;42965;52.846;6.614;2022-11-12T06:01:19;3.70;99.90
57088;DHT22;42965;52.846;6.614;2022-11-12T06:04:04;3.70;99.90
57088;DHT22;42965;52.846;6.614;2022-11-12T06:06:48;3.70;99.90
57088;DHT22;42965;52.846;6.614;2022-11-12T06:09:33;3.70;99.90
57088;DHT22;42965;52.846;6.614;2022-11-12T06:12:18;3.70;99.90
57088;DHT22;42965;52.846;6.614;2022-11-12T06:15:04;3.70;99.90
57088;DHT22;42965;52.846;6.614;2022-11-12T06:17:48;3.70;99.90
57088;DHT22;42965;52.846;6.614;2022-11-12T06:20:33;3.80;99.90
57088;DHT22;42965;52.846;6.614;2022-11-12T06:23:18;3.90;99.90
57088;DHT22;42965;52.846;6.614;2022-11-12T06:26:04;3.90;99.90
57088;DHT22;42965;52.846;6.614;2022-11-12T06:28:49;3.90;99.90
57088;DHT22;42965;52.846;6.614;2022-11-12T06:31:34;3.90;99.90
57088;DHT22;42965;52.846;6.614;2022-11-12T06:34:18;3.80;99.90
57088;DHT22;42965;52.846;6.614;2022-11-12T06:37:03;3.80;99.90
57088;DHT22;42965;52.846;6.614;2022-11-12T06:39:49;3.70;99.90
57088;DHT22;42965;52.846;6.614;2022-11-12T06:42:34;3.70;99.90
57088;DHT22;42965;52.846;6.614;2022-11-12T06:45:19;3.70;99.90
57088;DHT22;42965;52.846;6.614;2022-11-12T06:48:04;3.60;99.90
57088;DHT22;42965;52.846;6.614;2022-11-12T06:50:49;3.60;99.90
57088;DHT22;42965;52.846;6.614;2022-11-12T06:53:34;3.50;99.90
57088;DHT22;42965;52.846;6.614;2022-11-12T06:56:19;3.50;99.90
57088;DHT22;42965;52.846;6.614;2022-11-12T06:59:04;3.50;99.90
57088;DHT22;42965;52.846;6.614;2022-11-12T07:01:49;3.40;99.90
57088;DHT22;42965;52.846;6.614;2022-11-12T07:04:39;3.40;99.90
57088;DHT22;42965;52.846;6.614;2022-11-12T07:07:24;3.40;99.90
57088;DHT22;42965;52.846;6.614;2022-11-12T07:10:09;3.30;99.90
57088;DHT22;42965;52.846;6.614;2022-11-12T07:12:54;3.30;99.90
57088;DHT22;42965;52.846;6.614;2022-11-12T07:15:40;3.30;99.90
57088;DHT22;42965;52.846;6.614;2022-11-12T07:18:26;3.40;99.90
57088;DHT22;42965;52.846;6.614;2022-11-12T07:21:12;3.40;99.90
57088;DHT22;42965;52.846;6.614;2022-11-12T07:23:57;3.40;99.90
57088;DHT22;42965;52.846;6.614;2022-11-12T07:26:43;3.50;99.90
57088;DHT22;42965;52.846;6.614;2022-11-12T07:29:28;3.50;99.90
57088;DHT22;42965;52.846;6.614;2022-11-12T07:32:13;3.50;99.90
57088;DHT22;42965;52.846;6.614;2022-11-12T07:34:58;3.60;99.90
57088;DHT22;42965;52.846;6.614;2022-11-12T07:37:43;3.60;99.90
57088;DHT22;42965;52.846;6.614;2022-11-12T07:40:29;3.70;99.90
57088;DHT22;42965;52.846;6.614;2022-11-12T07:43:17;3.70;99.90
57088;DHT22;42965;52.846;6.614;2022-11-12T07:46:17;3.80;99.90
57088;DHT22;42965;52.846;6.614;2022-11-12T07:49:02;3.80;99.90
57088;DHT22;42965;52.846;6.614;2022-11-12T07:51:47;3.90;99.90
57088;DHT22;42965;52.846;6.614;2022-11-12T07:54:32;4.00;99.90
57088;DHT22;42965;52.846;6.614;2022-11-12T07:57:17;4.00;99.90
57088;DHT22;42965;52.846;6.614;2022-11-12T08:00:02;4.10;99.90
57088;DHT22;42965;52.846;6.614;2022-11-12T08:02:48;4.10;99.90
57088;DHT22;42965;52.846;6.614;2022-11-12T08:05:33;4.20;99.90
57088;DHT22;42965;52.846;6.614;2022-11-12T08:08:18;4.20;99.90
57088;DHT22;42965;52.846;6.614;2022-11-12T08:11:04;4.20;99.90
57088;DHT22;42965;52.846;6.614;2022-11-12T08:13:49;4.30;99.90
57088;DHT22;42965;52.846;6.614;2022-11-12T08:16:34;4.40;99.90
57088;DHT22;42965;52.846;6.614;2022-11-12T08:19:18;4.50;99.90
57088;DHT22;42965;52.846;6.614;2022-11-12T08:22:03;4.70;99.90
57088;DHT22;42965;52.846;6.614;2022-11-12T08:24:48;5.20;99.90
57088;DHT22;42965;52.846;6.614;2022-11-12T08:27:34;6.20;99.90
57088;DHT22;42965;52.846;6.614;2022-11-12T08:30:19;7.10;99.90
57088;DHT22;42965;52.846;6.614;2022-11-12T08:33:04;8.00;99.90
57088;DHT22;42965;52.846;6.614;2022-11-12T08:35:50;8.60;99.90
57088;DHT22;42965;52.846;6.614;2022-11-12T08:38:35;8.80;99.90
57088;DHT22;42965;52.846;6.614;2022-11-12T08:41:21;8.80;99.90
57088;DHT22;42965;52.846;6.614;2022-11-12T08:44:06;9.00;99.90
57088;DHT22;42965;52.846;6.614;2022-11-12T08:46:50;9.30;99.90
57088;DHT22;42965;52.846;6.614;2022-11-12T08:49:35;10.10;99.90
57088;DHT22;42965;52.846;6.614;2022-11-12T08:52:20;10.70;99.90
57088;DHT22;42965;52.846;6.614;2022-11-12T08:55:06;11.40;99.90
57088;DHT22;42965;52.846;6.614;2022-11-12T08:57:51;11.80;99.90
57088;DHT22;42965;52.846;6.614;2022-11-12T09:00:38;12.00;99.90
57088;DHT22;42965;52.846;6.614;2022-11-12T09:03:25;12.80;99.90
57088;DHT22;42965;52.846;6.614;2022-11-12T09:06:10;12.40;99.90
57088;DHT22;42965;52.846;6.614;2022-11-12T09:08:55;12.20;99.90
57088;DHT22;42965;52.846;6.614;2022-11-12T09:11:40;12.80;99.90
57088;DHT22;42965;52.846;6.614;2022-11-12T09:14:25;13.00;99.90
57088;DHT22;42965;52.846;6.614;2022-11-12T09:17:11;13.30;99.90
57088;DHT22;42965;52.846;6.614;2022-11-12T09:19:55;13.70;99.90
57088;DHT22;42965;52.846;6.614;2022-11-12T09:22:40;14.20;99.90
57088;DHT22;42965;52.846;6.614;2022-11-12T09:25:25;14.60;99.90
57088;DHT22;42965;52.846;6.614;2022-11-12T09:28:15;15.30;99.90
57088;DHT22;42965;52.846;6.614;2022-11-12T09:31:01;15.70;99.90
57088;DHT22;42965;52.846;6.614;2022-11-12T09:33:46;15.60;99.90
57088;DHT22;42965;52.846;6.614;2022-11-12T09:36:30;16.20;99.90
57088;DHT22;42965;52.846;6.614;2022-11-12T09:39:16;16.20;99.90
57088;DHT22;42965;52.846;6.614;2022-11-12T09:42:06;16.80;99.90
57088;DHT22;42965;52.846;6.614;2022-11-12T09:44:59;16.70;99.90
57088;DHT22;42965;52.846;6.614;2022-11-12T09:47:51;17.20;99.90
57088;DHT22;42965;52.846;6.614;2022-11-12T09:50:41;17.10;99.90
57088;DHT22;42965;52.846;6.614;2022-11-12T09:53:38;16.90;99.90
57088;DHT22;42965;52.846;6.614;2022-11-12T09:56:25;17.00;99.90
57088;DHT22;42965;52.846;6.614;2022-11-12T09:59:12;17.20;99.90
57088;DHT22;42965;52.846;6.614;2022-11-12T10:05:08;16.90;99.90
57088;DHT22;42965;52.846;6.614;2022-11-12T10:08:05;17.20;99.90
57088;DHT22;42965;52.846;6.614;2022-11-12T10:14:18;18.10;99.90
57088;DHT22;42965;52.846;6.614;2022-11-12T10:20:31;17.90;99.90
57088;DHT22;42965;52.846;6.614;2022-11-12T10:23:39;18.30;99.90
57088;DHT22;42965;52.846;6.614;2022-11-12T10:26:25;18.20;99.90
57088;DHT22;42965;52.846;6.614;2022-11-12T10:29:50;17.90;99.90
57088;DHT22;42965;52.846;6.614;2022-11-12T10:32:37;19.00;99.90
57088;DHT22;42965;52.846;6.614;2022-11-12T10:35:25;19.60;99.90
57088;DHT22;42965;52.846;6.614;2022-11-12T10:38:18;19.60;99.90
57088;DHT22;42965;52.846;6.614;2022-11-12T10:41:25;19.50;99.90
57088;DHT22;42965;52.846;6.614;2022-11-12T10:44:13;19.20;99.90
57088;DHT22;42965;52.846;6.614;2022-11-12T10:50:21;20.00;99.90
57088;DHT22;42965;52.846;6.614;2022-11-12T10:53:10;19.90;99.90
57088;DHT22;42965;52.846;6.614;2022-11-12T10:55:58;20.00;99.90
57088;DHT22;42965;52.846;6.614;2022-11-12T10:59:05;20.10;99.90
57088;DHT22;42965;52.846;6.614;2022-11-12T11:01:56;19.90;99.90
57088;DHT22;42965;52.846;6.614;2022-11-12T11:04:42;19.90;99.90
57088;DHT22;42965;52.846;6.614;2022-11-12T11:07:27;20.00;99.90
57088;DHT22;42965;52.846;6.614;2022-11-12T11:10:28;20.00;99.90
57088;DHT22;42965;52.846;6.614;2022-11-12T11:16:07;19.80;99.90
57088;DHT22;42965;52.846;6.614;2022-11-12T11:18:55;20.10;99.90
57088;DHT22;42965;52.846;6.614;2022-11-12T11:27:44;20.70;99.90
57088;DHT22;42965;52.846;6.614;2022-11-12T11:30:32;20.60;99.90
57088;DHT22;42965;52.846;6.614;2022-11-12T11:33:23;20.50;99.90
57088;DHT22;42965;52.846;6.614;2022-11-12T11:57:54;22.20;94.40
57088;DHT22;42965;52.846;6.614;2022-11-12T12:06:31;23.20;89.60
57088;DHT22;42965;52.846;6.614;2022-11-12T12:09:41;23.10;90.00
57088;DHT22;42965;52.846;6.614;2022-11-12T12:21:36;22.00;85.60
57088;DHT22;42965;52.846;6.614;2022-11-12T12:24:30;22.10;90.30
57088;DHT22;42965;52.846;6.614;2022-11-12T12:27:31;22.20;90.20
57088;DHT22;42965;52.846;6.614;2022-11-12T12:30:22;22.20;87.90
57088;DHT22;42965;52.846;6.614;2022-11-12T12:33:31;22.40;90.80
57088;DHT22;42965;52.846;6.614;2022-11-12T12:36:22;22.50;88.80
57088;DHT22;42965;52.846;6.614;2022-11-12T12:39:18;22.30;90.30
57088;DHT22;42965;52.846;6.614;2022-11-12T12:42:19;22.80;90.00
57088;DHT22;42965;52.846;6.614;2022-11-12T12:45:31;23.00;82.80
57088;DHT22;42965;52.846;6.614;2022-11-12T12:48:36;23.20;82.40
57088;DHT22;42965;52.846;6.614;2022-11-12T12:51:21;23.10;79.00
57088;DHT22;42965;52.846;6.614;2022-11-12T13:00:31;23.10;81.00
57088;DHT22;42965;52.846;6.614;2022-11-12T13:09:30;23.00;77.20
57088;DHT22;42965;52.846;6.614;2022-11-12T13:12:17;23.20;82.00
57088;DHT22;42965;52.846;6.614;2022-11-12T13:15:14;23.60;80.10
57088;DHT22;42965;52.846;6.614;2022-11-12T13:17:59;24.00;76.90
57088;DHT22;42965;52.846;6.614;2022-11-12T13:23:59;23.80;76.60
57088;DHT22;42965;52.846;6.614;2022-11-12T13:26:54;23.60;75.80
57088;DHT22;42965;52.846;6.614;2022-11-12T13:29:40;23.20;76.90
57088;DHT22;42965;52.846;6.614;2022-11-12T13:35:31;23.20;76.70
57088;DHT22;42965;52.846;6.614;2022-11-12T13:38:18;23.30;76.00
57088;DHT22;42965;52.846;6.614;2022-11-12T13:43:55;23.20;78.10
57088;DHT22;42965;52.846;6.614;2022-11-12T13:46:40;23.20;78.70
57088;DHT22;42965;52.846;6.614;2022-11-12T13:49:27;23.00;78.50
57088;DHT22;42965;52.846;6.614;2022-11-12T13:52:13;23.00;78.70
57088;DHT22;42965;52.846;6.614;2022-11-12T13:55:16;23.00;79.00
57088;DHT22;42965;52.846;6.614;2022-11-12T13:58:01;22.90;77.50
57088;DHT22;42965;52.846;6.614;2022-11-12T14:00:54;22.90;79.10
57088;DHT22;42965;52.846;6.614;2022-11-12T14:03:48;22.50;80.20
57088;DHT22;42965;52.846;6.614;2022-11-12T14:09:39;22.60;80.90
57088;DHT22;42965;52.846;6.614;2022-11-12T14:12:33;22.40;81.40
57088;DHT22;42965;52.846;6.614;2022-11-12T14:24:58;22.20;82.90
57088;DHT22;42965;52.846;6.614;2022-11-12T14:27:46;22.20;83.60
57088;DHT22;42965;52.846;6.614;2022-11-12T14:30:31;22.10;84.80
57088;DHT22;42965;52.846;6.614;2022-11-12T14:33:19;22.30;83.80
57088;DHT22;42965;52.846;6.614;2022-11-12T14:36:15;22.20;84.10
57088;DHT22;42965;52.846;6.614;2022-11-12T14:39:01;22.20;84.40
57088;DHT22;42965;52.846;6.614;2022-11-12T14:41:47;22.00;85.20
57088;DHT22;42965;52.846;6.614;2022-11-12T14:44:35;21.80;87.00
57088;DHT22;42965;52.846;6.614;2022-11-12T14:47:22;21.90;86.90
57088;DHT22;42965;52.846;6.614;2022-11-12T14:50:14;21.70;88.20
57088;DHT22;42965;52.846;6.614;2022-11-12T14:53:06;21.50;88.70
57088;DHT22;42965;52.846;6.614;2022-11-12T14:55:55;21.00;89.40
57088;DHT22;42965;52.846;6.614;2022-11-12T14:58:41;20.60;90.70
57088;DHT22;42965;52.846;6.614;2022-11-12T15:01:28;20.20;92.10
57088;DHT22;42965;52.846;6.614;2022-11-12T15:04:19;20.00;93.40
57088;DHT22;42965;52.846;6.614;2022-11-12T15:07:05;19.30;96.10
57088;DHT22;42965;52.846;6.614;2022-11-12T15:09:50;19.10;98.60
57088;DHT22;42965;52.846;6.614;2022-11-12T15:12:35;18.20;99.90
57088;DHT22;42965;52.846;6.614;2022-11-12T15:15:20;17.60;99.90
57088;DHT22;42965;52.846;6.614;2022-11-12T15:18:16;16.90;99.90
57088;DHT22;42965;52.846;6.614;2022-11-12T15:24:50;15.70;99.90
57088;DHT22;42965;52.846;6.614;2022-11-12T15:27:41;15.10;99.90
57088;DHT22;42965;52.846;6.614;2022-11-12T15:30:28;14.70;99.90
57088;DHT22;42965;52.846;6.614;2022-11-12T15:33:17;14.40;99.90
57088;DHT22;42965;52.846;6.614;2022-11-12T15:36:11;14.10;99.90
57088;DHT22;42965;52.846;6.614;2022-11-12T15:39:01;13.90;99.90
57088;DHT22;42965;52.846;6.614;2022-11-12T15:41:46;13.80;99.90
57088;DHT22;42965;52.846;6.614;2022-11-12T15:44:35;13.50;99.90
57088;DHT22;42965;52.846;6.614;2022-11-12T15:47:21;13.20;99.90
57088;DHT22;42965;52.846;6.614;2022-11-12T15:50:18;13.10;99.90
57088;DHT22;42965;52.846;6.614;2022-11-12T15:53:06;13.00;99.90
57088;DHT22;42965;52.846;6.614;2022-11-12T15:55:51;12.90;99.90
57088;DHT22;42965;52.846;6.614;2022-11-12T15:58:36;12.70;99.90
57088;DHT22;42965;52.846;6.614;2022-11-12T16:01:24;12.60;99.90
57088;DHT22;42965;52.846;6.614;2022-11-12T16:04:11;12.40;99.90
57088;DHT22;42965;52.846;6.614;2022-11-12T16:06:56;12.30;99.90
57088;DHT22;42965;52.846;6.614;2022-11-12T16:09:41;12.20;99.90
57088;DHT22;42965;52.846;6.614;2022-11-12T16:12:26;12.00;99.90
57088;DHT22;42965;52.846;6.614;2022-11-12T16:15:16;11.80;99.90
57088;DHT22;42965;52.846;6.614;2022-11-12T16:18:02;11.70;99.90
57088;DHT22;42965;52.846;6.614;2022-11-12T16:20:47;11.50;99.90
57088;DHT22;42965;52.846;6.614;2022-11-12T16:23:33;11.30;99.90
57088;DHT22;42965;52.846;6.614;2022-11-12T16:26:23;11.20;99.90
57088;DHT22;42965;52.846;6.614;2022-11-12T16:29:12;11.10;99.90
57088;DHT22;42965;52.846;6.614;2022-11-12T16:31:57;11.00;99.90
57088;DHT22;42965;52.846;6.614;2022-11-12T16:34:42;10.90;99.90
57088;DHT22;42965;52.846;6.614;2022-11-12T16:37:27;10.90;99.90
57088;DHT22;42965;52.846;6.614;2022-11-12T16:40:16;10.80;99.90
57088;DHT22;42965;52.846;6.614;2022-11-12T16:43:01;10.60;99.90
57088;DHT22;42965;52.846;6.614;2022-11-12T16:45:46;10.60;99.90
57088;DHT22;42965;52.846;6.614;2022-11-12T16:48:31;10.40;99.90
57088;DHT22;42965;52.846;6.614;2022-11-12T16:51:18;10.40;99.90
57088;DHT22;42965;52.846;6.614;2022-11-12T16:54:04;10.30;99.90
57088;DHT22;42965;52.846;6.614;2022-11-12T16:56:49;10.30;99.90
57088;DHT22;42965;52.846;6.614;2022-11-12T16:59:34;10.10;99.90
57088;DHT22;42965;52.846;6.614;2022-11-12T17:02:20;10.10;99.90
57088;DHT22;42965;52.846;6.614;2022-11-12T17:05:09;10.10;99.90
57088;DHT22;42965;52.846;6.614;2022-11-12T17:07:56;10.00;99.90
57088;DHT22;42965;52.846;6.614;2022-11-12T17:10:41;9.90;99.90
57088;DHT22;42965;52.846;6.614;2022-11-12T17:13:26;9.80;99.90
57088;DHT22;42965;52.846;6.614;2022-11-12T17:16:11;9.80;99.90
57088;DHT22;42965;52.846;6.614;2022-11-12T17:18:57;9.70;99.90
57088;DHT22;42965;52.846;6.614;2022-11-12T17:21:43;9.70;99.90
57088;DHT22;42965;52.846;6.614;2022-11-12T17:24:28;9.60;99.90
57088;DHT22;42965;52.846;6.614;2022-11-12T17:27:13;9.60;99.90
57088;DHT22;42965;52.846;6.614;2022-11-12T17:29:58;9.60;99.90
57088;DHT22;42965;52.846;6.614;2022-11-12T17:32:43;9.50;99.90
57088;DHT22;42965;52.846;6.614;2022-11-12T17:35:28;9.50;99.90
57088;DHT22;42965;52.846;6.614;2022-11-12T17:38:14;9.30;99.90
57088;DHT22;42965;52.846;6.614;2022-11-12T17:40:59;9.30;99.90
57088;DHT22;42965;52.846;6.614;2022-11-12T17:43:44;9.30;99.90
57088;DHT22;42965;52.846;6.614;2022-11-12T17:46:30;9.10;99.90
57088;DHT22;42965;52.846;6.614;2022-11-12T17:49:16;9.00;99.90
57088;DHT22;42965;52.846;6.614;2022-11-12T17:52:01;9.00;99.90
57088;DHT22;42965;52.846;6.614;2022-11-12T17:54:46;9.00;99.90
57088;DHT22;42965;52.846;6.614;2022-11-12T17:57:31;8.90;99.90
57088;DHT22;42965;52.846;6.614;2022-11-12T18:00:17;8.90;99.90
57088;DHT22;42965;52.846;6.614;2022-11-12T18:03:02;8.80;99.90
57088;DHT22;42965;52.846;6.614;2022-11-12T18:05:55;8.80;99.90
57088;DHT22;42965;52.846;6.614;2022-11-12T18:08:41;8.70;99.90
57088;DHT22;42965;52.846;6.614;2022-11-12T18:11:27;8.70;99.90
57088;DHT22;42965;52.846;6.614;2022-11-12T18:14:13;8.60;99.90
57088;DHT22;42965;52.846;6.614;2022-11-12T18:16:57;8.50;99.90
57088;DHT22;42965;52.846;6.614;2022-11-12T18:19:45;8.50;99.90
57088;DHT22;42965;52.846;6.614;2022-11-12T18:22:29;8.40;99.90
57088;DHT22;42965;52.846;6.614;2022-11-12T18:25:15;8.30;99.90
57088;DHT22;42965;52.846;6.614;2022-11-12T18:27:59;8.30;99.90
57088;DHT22;42965;52.846;6.614;2022-11-12T18:30:44;8.30;99.90
57088;DHT22;42965;52.846;6.614;2022-11-12T18:33:29;8.20;99.90
57088;DHT22;42965;52.846;6.614;2022-11-12T18:36:20;8.30;99.90
57088;DHT22;42965;52.846;6.614;2022-11-12T18:39:07;8.20;99.90
57088;DHT22;42965;52.846;6.614;2022-11-12T18:41:52;8.20;99.90
57088;DHT22;42965;52.846;6.614;2022-11-12T18:44:38;8.20;99.90
57088;DHT22;42965;52.846;6.614;2022-11-12T18:47:23;8.20;99.90
57088;DHT22;42965;52.846;6.614;2022-11-12T18:50:08;8.20;99.90
57088;DHT22;42965;52.846;6.614;2022-11-12T18:52:52;8.20;99.90
57088;DHT22;42965;52.846;6.614;2022-11-12T18:55:38;8.10;99.90
57088;DHT22;42965;52.846;6.614;2022-11-12T18:58:24;8.30;99.90
57088;DHT22;42965;52.846;6.614;2022-11-12T19:01:13;8.30;99.90
57088;DHT22;42965;52.846;6.614;2022-11-12T19:04:01;8.30;99.90
57088;DHT22;42965;52.846;6.614;2022-11-12T19:06:45;8.20;99.90
57088;DHT22;42965;52.846;6.614;2022-11-12T19:09:30;8.20;99.90
57088;DHT22;42965;52.846;6.614;2022-11-12T19:12:15;8.20;99.90
57088;DHT22;42965;52.846;6.614;2022-11-12T19:15:00;8.20;99.90
57088;DHT22;42965;52.846;6.614;2022-11-12T19:17:44;8.20;99.90
57088;DHT22;42965;52.846;6.614;2022-11-12T19:20:30;8.20;99.90
57088;DHT22;42965;52.846;6.614;2022-11-12T19:23:15;8.20;99.90
57088;DHT22;42965;52.846;6.614;2022-11-12T19:26:05;8.20;99.90
57088;DHT22;42965;52.846;6.614;2022-11-12T19:28:50;8.20;99.90